FPO582 GMFO-LFPG
Flight info
| Callsign | FPO582 |
|---|---|
| Flight time | N/A |
| Altitude | 37000 |
| Route | ORSUP UA411 MOS UA6 LABRO DCT CDP DCT CHELY DCT LUMAS DCT SOFFY DCT MRM DCT MTL DCT ETREK DCT RUSIT DCT BULOL DCT LOGNI DCT MOKIP DCT ARFOZ DCT TINIL |
| Aircraft | B738/M-SDE2E3FGHIRWXY/LB1 |
Departure
| Time | 2026-04-20 21:41 |
|---|---|
| Airport | Oujda Angads Airport (GMFO) |
Arrival
| Time | N/A |
|---|---|
| Airport | Charles de Gaulle International Airport (LFPG) |
| Time | Latitude | Longitude | Altitude | Speed | Heading |
|---|---|---|---|---|---|
| 2026-04-20 21:09 | 34.78500 | -1.94279 | 1524 ft | 0 kts | 45° |
| 2026-04-20 21:34 | 34.78499 | -1.94272 | 1527 ft | 2 kts | 98° |
| 2026-04-20 21:34 | 34.78489 | -1.94245 | 1524 ft | 6 kts | 117° |
| 2026-04-20 21:34 | 34.78460 | -1.94189 | 1522 ft | 10 kts | 121° |
| 2026-04-20 21:35 | 34.78445 | -1.94094 | 1527 ft | 14 kts | 79° |
| 2026-04-20 21:35 | 34.78482 | -1.93968 | 1526 ft | 18 kts | 66° |
| 2026-04-20 21:35 | 34.78528 | -1.93843 | 1521 ft | 16 kts | 87° |
| 2026-04-20 21:35 | 34.78470 | -1.93725 | 1524 ft | 17 kts | 131° |
| 2026-04-20 21:36 | 34.78433 | -1.93601 | 1523 ft | 16 kts | 63° |
| 2026-04-20 21:36 | 34.78513 | -1.93502 | 1521 ft | 17 kts | 41° |
| 2026-04-20 21:36 | 34.78606 | -1.93403 | 1520 ft | 18 kts | 40° |
| 2026-04-20 21:36 | 34.78701 | -1.93303 | 1520 ft | 18 kts | 40° |
| 2026-04-20 21:37 | 34.78794 | -1.93207 | 1520 ft | 17 kts | 41° |
| 2026-04-20 21:37 | 34.78883 | -1.93113 | 1522 ft | 17 kts | 40° |
| 2026-04-20 21:37 | 34.78967 | -1.93021 | 1524 ft | 16 kts | 43° |
| 2026-04-20 21:37 | 34.79050 | -1.92935 | 1522 ft | 15 kts | 41° |
| 2026-04-20 21:38 | 34.79114 | -1.92869 | 1528 ft | 0 kts | 41° |
| 2026-04-20 21:39 | 34.79132 | -1.92851 | 1525 ft | 7 kts | 39° |
| 2026-04-20 21:40 | 34.79193 | -1.92793 | 1521 ft | 14 kts | 27° |
| 2026-04-20 21:40 | 34.79280 | -1.92837 | 1526 ft | 15 kts | 309° |
| 2026-04-20 21:40 | 34.79400 | -1.92998 | 1523 ft | 58 kts | 311° |
| 2026-04-20 21:40 | 34.79848 | -1.93628 | 1513 ft | 137 kts | 311° |
| 2026-04-20 21:41 | 34.80620 | -1.94705 | 1496 ft | 199 kts | 312° |
| 2026-04-20 21:41 | 34.81598 | -1.96053 | 1958 ft | 213 kts | 312° |
| 2026-04-20 21:41 | 34.82601 | -1.97412 | 2541 ft | 225 kts | 307° |
| 2026-04-20 21:41 | 34.83152 | -1.99269 | 2714 ft | 249 kts | 269° |
| 2026-04-20 21:42 | 34.82632 | -2.01240 | 2868 ft | 266 kts | 233° |
| 2026-04-20 21:42 | 34.81396 | -2.02987 | 3051 ft | 279 kts | 231° |
| 2026-04-20 21:42 | 34.80296 | -2.04858 | 3763 ft | 258 kts | 235° |
| 2026-04-20 21:42 | 34.79341 | -2.06587 | 4551 ft | 240 kts | 236° |
| 2026-04-20 21:43 | 34.78411 | -2.08281 | 4893 ft | 242 kts | 236° |
| 2026-04-20 21:43 | 34.77470 | -2.09993 | 5201 ft | 244 kts | 236° |
| 2026-04-20 21:43 | 34.76519 | -2.11723 | 5505 ft | 247 kts | 236° |
| 2026-04-20 21:43 | 34.75564 | -2.13459 | 5823 ft | 248 kts | 236° |
| 2026-04-20 21:44 | 34.74471 | -2.15078 | 6098 ft | 250 kts | 217° |
| 2026-04-20 21:44 | 34.72874 | -2.15878 | 6410 ft | 252 kts | 189° |
| 2026-04-20 21:44 | 34.71119 | -2.15659 | 6808 ft | 259 kts | 161° |
| 2026-04-20 21:44 | 34.69617 | -2.14462 | 7446 ft | 265 kts | 135° |
| 2026-04-20 21:45 | 34.68642 | -2.12467 | 7724 ft | 288 kts | 108° |
| 2026-04-20 21:45 | 34.68464 | -2.10012 | 8342 ft | 298 kts | 81° |
| 2026-04-20 21:45 | 34.69223 | -2.07681 | 9210 ft | 299 kts | 54° |
| 2026-04-20 21:45 | 34.70498 | -2.05679 | 10055 ft | 301 kts | 50° |
| 2026-04-20 21:46 | 34.71850 | -2.03677 | 10535 ft | 317 kts | 50° |
| 2026-04-20 21:46 | 34.73282 | -2.01506 | 10722 ft | 341 kts | 51° |
| 2026-04-20 21:46 | 34.74785 | -1.99148 | 10898 ft | 364 kts | 52° |
| 2026-04-20 21:46 | 34.76340 | -1.96663 | 11103 ft | 383 kts | 52° |
| 2026-04-20 21:47 | 34.77969 | -1.94056 | 11622 ft | 390 kts | 51° |
| 2026-04-20 21:47 | 34.79705 | -1.91505 | 12302 ft | 393 kts | 49° |
| 2026-04-20 21:47 | 34.81496 | -1.88978 | 12959 ft | 396 kts | 49° |
| 2026-04-20 21:47 | 34.83295 | -1.86420 | 13599 ft | 400 kts | 49° |
| 2026-04-20 21:48 | 34.85095 | -1.83826 | 14201 ft | 403 kts | 49° |
| 2026-04-20 21:48 | 34.86875 | -1.81174 | 14812 ft | 405 kts | 50° |
| 2026-04-20 21:48 | 34.88638 | -1.78481 | 15414 ft | 408 kts | 51° |
| 2026-04-20 21:48 | 34.90402 | -1.75764 | 16020 ft | 411 kts | 51° |
| 2026-04-20 21:49 | 34.92179 | -1.73020 | 16612 ft | 413 kts | 51° |
| 2026-04-20 21:49 | 34.93967 | -1.70263 | 17187 ft | 416 kts | 51° |
| 2026-04-20 21:49 | 34.95770 | -1.67487 | 17758 ft | 419 kts | 51° |
| 2026-04-20 21:49 | 34.97589 | -1.64691 | 18310 ft | 422 kts | 51° |
| 2026-04-20 21:50 | 34.99423 | -1.61871 | 18730 ft | 427 kts | 51° |
| 2026-04-20 21:50 | 35.01273 | -1.59029 | 19166 ft | 431 kts | 51° |
| 2026-04-20 21:50 | 35.03142 | -1.56154 | 19639 ft | 434 kts | 51° |
| 2026-04-20 21:50 | 35.05020 | -1.53264 | 20132 ft | 436 kts | 51° |
| 2026-04-20 21:51 | 35.06909 | -1.50354 | 20617 ft | 439 kts | 51° |
| 2026-04-20 21:51 | 35.08813 | -1.47419 | 21053 ft | 442 kts | 51° |
| 2026-04-20 21:51 | 35.10728 | -1.44463 | 21462 ft | 446 kts | 51° |
| 2026-04-20 21:51 | 35.12656 | -1.41487 | 21888 ft | 449 kts | 51° |
| 2026-04-20 21:52 | 35.14598 | -1.38486 | 22284 ft | 452 kts | 51° |
| 2026-04-20 21:52 | 35.16555 | -1.35458 | 22669 ft | 456 kts | 51° |
| 2026-04-20 21:52 | 35.18525 | -1.32407 | 23058 ft | 459 kts | 51° |
| 2026-04-20 21:52 | 35.20507 | -1.29336 | 23448 ft | 462 kts | 51° |
| 2026-04-20 21:53 | 35.22501 | -1.26243 | 23781 ft | 464 kts | 51° |
| 2026-04-20 21:53 | 35.24506 | -1.23130 | 24104 ft | 467 kts | 51° |
| 2026-04-20 21:53 | 35.26518 | -1.20004 | 24434 ft | 469 kts | 51° |
| 2026-04-20 21:53 | 35.28540 | -1.16858 | 24750 ft | 471 kts | 51° |
| 2026-04-20 21:54 | 35.30572 | -1.13695 | 25080 ft | 473 kts | 51° |
| 2026-04-20 21:54 | 35.32607 | -1.10524 | 25432 ft | 474 kts | 51° |
| 2026-04-20 21:54 | 35.34648 | -1.07341 | 25735 ft | 477 kts | 51° |
| 2026-04-20 21:54 | 35.36700 | -1.04138 | 26019 ft | 479 kts | 51° |
| 2026-04-20 21:55 | 35.38762 | -1.00916 | 26299 ft | 481 kts | 51° |
| 2026-04-20 21:55 | 35.40762 | -0.97789 | 26573 ft | 483 kts | 51° |
| 2026-04-20 21:55 | 35.42836 | -0.94541 | 26852 ft | 485 kts | 51° |
| 2026-04-20 21:55 | 35.44921 | -0.91275 | 27112 ft | 487 kts | 51° |
| 2026-04-20 21:56 | 35.47016 | -0.87990 | 27371 ft | 489 kts | 51° |
| 2026-04-20 21:56 | 35.49113 | -0.84697 | 27647 ft | 491 kts | 51° |
| 2026-04-20 21:56 | 35.51215 | -0.81394 | 27997 ft | 491 kts | 51° |
| 2026-04-20 21:56 | 35.53316 | -0.78090 | 28365 ft | 490 kts | 51° |
| 2026-04-20 21:57 | 35.55381 | -0.74838 | 28787 ft | 488 kts | 51° |
| 2026-04-20 21:57 | 35.57460 | -0.71563 | 29315 ft | 485 kts | 51° |
| 2026-04-20 21:57 | 35.59529 | -0.68300 | 29720 ft | 484 kts | 51° |
| 2026-04-20 21:57 | 35.61491 | -0.64935 | 30010 ft | 485 kts | 58° |
| 2026-04-20 21:58 | 35.63033 | -0.61242 | 30278 ft | 486 kts | 66° |
| 2026-04-20 21:58 | 35.64393 | -0.57447 | 30614 ft | 485 kts | 66° |
| 2026-04-20 21:58 | 35.65728 | -0.53643 | 30947 ft | 484 kts | 67° |
| 2026-04-20 21:58 | 35.67065 | -0.49842 | 31243 ft | 484 kts | 66° |
| 2026-04-20 21:59 | 35.68413 | -0.46052 | 31530 ft | 484 kts | 66° |
| 2026-04-20 21:59 | 35.69775 | -0.42265 | 31836 ft | 483 kts | 66° |
| 2026-04-20 21:59 | 35.71141 | -0.38490 | 32151 ft | 483 kts | 66° |
| 2026-04-20 21:59 | 35.72509 | -0.34722 | 32445 ft | 482 kts | 66° |
| 2026-04-20 22:00 | 35.73878 | -0.30952 | 32725 ft | 482 kts | 66° |
| 2026-04-20 22:00 | 35.75246 | -0.27177 | 33003 ft | 482 kts | 66° |
| 2026-04-20 22:00 | 35.76610 | -0.23408 | 33295 ft | 482 kts | 67° |
| 2026-04-20 22:00 | 35.77972 | -0.19639 | 33589 ft | 482 kts | 67° |
| 2026-04-20 22:01 | 35.79331 | -0.15870 | 33879 ft | 481 kts | 67° |
| 2026-04-20 22:01 | 35.80687 | -0.12106 | 34146 ft | 480 kts | 67° |
| 2026-04-20 22:01 | 35.82037 | -0.08353 | 34396 ft | 479 kts | 67° |
| 2026-04-20 22:01 | 35.83386 | -0.04597 | 34632 ft | 479 kts | 67° |
| 2026-04-20 22:02 | 35.84732 | -0.00845 | 34877 ft | 478 kts | 67° |
| 2026-04-20 22:02 | 35.86025 | 0.02761 | 35112 ft | 478 kts | 66° |
| 2026-04-20 22:02 | 35.87365 | 0.06500 | 35335 ft | 477 kts | 66° |
| 2026-04-20 22:02 | 35.88846 | 0.10156 | 35539 ft | 477 kts | 57° |
| 2026-04-20 22:03 | 35.90876 | 0.13386 | 35755 ft | 476 kts | 45° |
| 2026-04-20 22:03 | 35.93339 | 0.16095 | 36002 ft | 474 kts | 34° |
| 2026-04-20 22:03 | 35.96130 | 0.18229 | 36235 ft | 471 kts | 28° |
| 2026-04-20 22:03 | 35.98991 | 0.20208 | 36453 ft | 471 kts | 27° |
| 2026-04-20 22:04 | 36.01850 | 0.22158 | 36655 ft | 471 kts | 27° |
| 2026-04-20 22:04 | 36.04711 | 0.24116 | 36867 ft | 470 kts | 27° |
| 2026-04-20 22:04 | 36.07574 | 0.26095 | 36935 ft | 473 kts | 28° |
| 2026-04-20 22:05 | 36.13293 | 0.30105 | 36932 ft | 471 kts | 28° |
| 2026-04-20 22:05 | 36.18961 | 0.34122 | 36938 ft | 468 kts | 28° |
| 2026-04-20 22:06 | 36.24552 | 0.38096 | 36941 ft | 465 kts | 28° |
| 2026-04-20 22:06 | 36.30155 | 0.42083 | 36937 ft | 464 kts | 28° |
| 2026-04-20 22:07 | 36.35751 | 0.46069 | 36939 ft | 464 kts | 28° |
| 2026-04-20 22:07 | 36.41353 | 0.50065 | 36948 ft | 465 kts | 28° |
| 2026-04-20 22:08 | 36.46977 | 0.54084 | 36943 ft | 467 kts | 28° |
| 2026-04-20 22:08 | 36.52628 | 0.58130 | 36950 ft | 470 kts | 28° |
| 2026-04-20 22:09 | 36.58306 | 0.62202 | 36943 ft | 472 kts | 28° |
| 2026-04-20 22:09 | 36.64005 | 0.66296 | 36941 ft | 474 kts | 28° |
| 2026-04-20 22:10 | 36.69717 | 0.70407 | 36939 ft | 475 kts | 28° |
| 2026-04-20 22:10 | 36.75436 | 0.74530 | 36957 ft | 475 kts | 28° |
| 2026-04-20 22:11 | 36.81155 | 0.78660 | 36943 ft | 475 kts | 28° |
| 2026-04-20 22:11 | 36.86867 | 0.82792 | 36945 ft | 474 kts | 28° |
| 2026-04-20 22:12 | 36.92574 | 0.86927 | 36944 ft | 474 kts | 28° |
| 2026-04-20 22:12 | 36.98271 | 0.91063 | 36948 ft | 473 kts | 28° |
| 2026-04-20 22:13 | 37.03957 | 0.95199 | 36950 ft | 473 kts | 28° |
| 2026-04-20 22:13 | 37.08681 | 0.98640 | 36950 ft | 473 kts | 28° |
| 2026-04-20 22:14 | 37.14268 | 1.02716 | 36951 ft | 472 kts | 28° |
| 2026-04-20 22:14 | 37.19939 | 1.06861 | 36950 ft | 472 kts | 28° |
| 2026-04-20 22:15 | 37.25608 | 1.11010 | 36961 ft | 472 kts | 28° |
| 2026-04-20 22:15 | 37.31140 | 1.15479 | 36963 ft | 473 kts | 33° |
| 2026-04-20 22:16 | 37.36438 | 1.20399 | 36953 ft | 474 kts | 34° |
| 2026-04-20 22:16 | 37.41723 | 1.25369 | 36954 ft | 474 kts | 34° |
| 2026-04-20 22:17 | 37.47031 | 1.30299 | 36964 ft | 474 kts | 34° |
| 2026-04-20 22:17 | 37.52361 | 1.35212 | 36957 ft | 475 kts | 34° |
| 2026-04-20 22:18 | 37.57697 | 1.40129 | 36959 ft | 475 kts | 34° |
| 2026-04-20 22:18 | 37.63034 | 1.45055 | 36959 ft | 475 kts | 34° |
| 2026-04-20 22:19 | 37.68366 | 1.49990 | 36959 ft | 475 kts | 34° |
| 2026-04-20 22:19 | 37.73661 | 1.54900 | 36966 ft | 476 kts | 34° |
| 2026-04-20 22:20 | 37.78997 | 1.59857 | 36961 ft | 476 kts | 34° |
| 2026-04-20 22:20 | 37.84331 | 1.64821 | 36962 ft | 476 kts | 34° |
| 2026-04-20 22:21 | 37.89663 | 1.69792 | 36967 ft | 476 kts | 34° |
| 2026-04-20 22:21 | 37.94990 | 1.74768 | 36979 ft | 476 kts | 34° |
| 2026-04-20 22:22 | 38.00315 | 1.79751 | 36964 ft | 476 kts | 34° |
| 2026-04-20 22:22 | 38.05643 | 1.84747 | 36968 ft | 476 kts | 34° |
| 2026-04-20 22:23 | 38.10971 | 1.89751 | 36964 ft | 476 kts | 34° |
| 2026-04-20 22:23 | 38.16290 | 1.94757 | 36965 ft | 476 kts | 34° |
| 2026-04-20 22:24 | 38.21609 | 1.99771 | 36973 ft | 476 kts | 34° |
| 2026-04-20 22:24 | 38.26825 | 2.04698 | 36968 ft | 475 kts | 34° |
| 2026-04-20 22:25 | 38.32127 | 2.09715 | 36967 ft | 475 kts | 34° |
| 2026-04-20 22:25 | 38.37421 | 2.14734 | 36972 ft | 474 kts | 34° |
| 2026-04-20 22:26 | 38.42706 | 2.19754 | 36972 ft | 474 kts | 34° |
| 2026-04-20 22:26 | 38.47985 | 2.24777 | 36975 ft | 473 kts | 34° |
| 2026-04-20 22:27 | 38.55895 | 2.32321 | 36973 ft | 473 kts | 34° |
| 2026-04-20 22:27 | 38.61164 | 2.37359 | 36977 ft | 473 kts | 34° |
| 2026-04-20 22:28 | 38.66437 | 2.42410 | 36979 ft | 474 kts | 33° |
| 2026-04-20 22:28 | 38.71713 | 2.47472 | 36979 ft | 474 kts | 33° |
| 2026-04-20 22:29 | 38.76961 | 2.52518 | 36979 ft | 475 kts | 34° |
| 2026-04-20 22:29 | 38.82248 | 2.57611 | 36979 ft | 476 kts | 34° |
| 2026-04-20 22:30 | 38.87541 | 2.62719 | 36994 ft | 476 kts | 33° |
| 2026-04-20 22:30 | 38.92838 | 2.67842 | 36989 ft | 477 kts | 33° |
| 2026-04-20 22:31 | 38.98137 | 2.72976 | 36983 ft | 477 kts | 33° |
| 2026-04-20 22:31 | 39.03422 | 2.78107 | 36986 ft | 477 kts | 33° |
| 2026-04-20 22:32 | 39.08717 | 2.83256 | 36977 ft | 477 kts | 33° |
| 2026-04-20 22:32 | 39.14005 | 2.88409 | 36983 ft | 477 kts | 33° |
| 2026-04-20 22:33 | 39.19289 | 2.93568 | 36992 ft | 476 kts | 33° |
| 2026-04-20 22:33 | 39.24562 | 2.98726 | 36987 ft | 475 kts | 33° |
| 2026-04-20 22:34 | 39.29733 | 3.03795 | 36991 ft | 475 kts | 33° |
| 2026-04-20 22:34 | 39.34954 | 3.08922 | 36998 ft | 475 kts | 33° |
| 2026-04-20 22:35 | 39.40203 | 3.14086 | 36991 ft | 474 kts | 33° |
| 2026-04-20 22:35 | 39.45442 | 3.19251 | 36990 ft | 473 kts | 33° |
| 2026-04-20 22:36 | 39.50676 | 3.24421 | 36990 ft | 473 kts | 33° |
| 2026-04-20 22:36 | 39.55898 | 3.29590 | 36998 ft | 472 kts | 33° |
| 2026-04-20 22:37 | 39.61111 | 3.34759 | 36989 ft | 472 kts | 33° |
| 2026-04-20 22:37 | 39.66320 | 3.39934 | 36990 ft | 471 kts | 33° |
| 2026-04-20 22:38 | 39.71590 | 3.44951 | 36978 ft | 467 kts | 28° |
| 2026-04-20 22:38 | 39.77172 | 3.49224 | 36999 ft | 465 kts | 25° |
| 2026-04-20 22:39 | 39.82805 | 3.53373 | 36985 ft | 465 kts | 25° |
| 2026-04-20 22:39 | 39.88414 | 3.57581 | 36987 ft | 465 kts | 26° |
| 2026-04-20 22:40 | 39.94000 | 3.61839 | 36985 ft | 465 kts | 26° |
| 2026-04-20 22:40 | 39.99579 | 3.66119 | 36995 ft | 465 kts | 26° |
| 2026-04-20 22:41 | 40.05154 | 3.70404 | 36984 ft | 466 kts | 26° |
| 2026-04-20 22:41 | 40.10736 | 3.74699 | 36981 ft | 466 kts | 26° |
| 2026-04-20 22:42 | 40.16318 | 3.79002 | 36981 ft | 466 kts | 26° |
| 2026-04-20 22:42 | 40.21899 | 3.83313 | 36986 ft | 466 kts | 26° |
| 2026-04-20 22:43 | 40.27481 | 3.87632 | 36982 ft | 466 kts | 26° |
| 2026-04-20 22:43 | 40.33066 | 3.91963 | 36981 ft | 466 kts | 26° |
| 2026-04-20 22:44 | 40.38653 | 3.96303 | 36983 ft | 466 kts | 26° |
| 2026-04-20 22:44 | 40.44101 | 4.00544 | 36989 ft | 467 kts | 26° |
| 2026-04-20 22:45 | 40.49686 | 4.04899 | 36980 ft | 467 kts | 26° |
| 2026-04-20 22:45 | 40.55270 | 4.09262 | 36979 ft | 467 kts | 26° |
| 2026-04-20 22:46 | 40.60852 | 4.13633 | 36992 ft | 467 kts | 26° |
| 2026-04-20 22:46 | 40.66429 | 4.18008 | 36987 ft | 467 kts | 26° |
| 2026-04-20 22:47 | 40.72005 | 4.22391 | 36981 ft | 467 kts | 26° |
| 2026-04-20 22:47 | 40.77578 | 4.26780 | 36983 ft | 467 kts | 26° |
| 2026-04-20 22:48 | 40.83148 | 4.31176 | 37002 ft | 466 kts | 26° |
| 2026-04-20 22:48 | 40.88719 | 4.35581 | 36984 ft | 467 kts | 26° |
| 2026-04-20 22:49 | 40.94289 | 4.39995 | 36984 ft | 467 kts | 26° |
| 2026-04-20 22:49 | 40.99856 | 4.44415 | 36986 ft | 467 kts | 26° |
| 2026-04-20 22:50 | 41.05420 | 4.48803 | 36993 ft | 465 kts | 23° |
| 2026-04-20 22:50 | 41.11412 | 4.51633 | 36980 ft | 453 kts | 6° |
| 2026-04-20 22:51 | 41.17610 | 4.53084 | 36977 ft | 452 kts | 5° |
| 2026-04-20 22:51 | 41.23776 | 4.54503 | 36981 ft | 453 kts | 5° |
| 2026-04-20 22:52 | 41.29982 | 4.55994 | 36986 ft | 453 kts | 5° |
| 2026-04-20 22:52 | 41.36191 | 4.57518 | 36985 ft | 454 kts | 6° |
| 2026-04-20 22:53 | 41.42393 | 4.59047 | 36978 ft | 453 kts | 6° |
| 2026-04-20 22:53 | 41.48595 | 4.60578 | 36996 ft | 452 kts | 5° |
| 2026-04-20 22:54 | 41.54782 | 4.62107 | 36976 ft | 452 kts | 5° |
| 2026-04-20 22:54 | 41.60955 | 4.63635 | 36974 ft | 451 kts | 5° |
| 2026-04-20 22:55 | 41.67118 | 4.65163 | 36974 ft | 450 kts | 5° |
| 2026-04-20 22:55 | 41.73271 | 4.66699 | 36978 ft | 450 kts | 7° |
| 2026-04-20 22:56 | 41.79352 | 4.68856 | 36978 ft | 453 kts | 12° |
| 2026-04-20 22:56 | 41.85375 | 4.71325 | 36971 ft | 453 kts | 12° |
| 2026-04-20 22:57 | 41.91396 | 4.73773 | 36980 ft | 452 kts | 11° |
| 2026-04-20 22:57 | 41.97419 | 4.76168 | 36971 ft | 452 kts | 11° |
| 2026-04-20 22:58 | 42.03440 | 4.78544 | 36973 ft | 451 kts | 11° |
| 2026-04-20 22:58 | 42.09471 | 4.80924 | 36972 ft | 451 kts | 11° |
| 2026-04-20 22:59 | 42.15500 | 4.83310 | 36977 ft | 452 kts | 11° |
| 2026-04-20 22:59 | 42.21535 | 4.85704 | 36972 ft | 452 kts | 11° |
| 2026-04-20 23:00 | 42.27567 | 4.88102 | 36976 ft | 452 kts | 11° |
| 2026-04-20 23:00 | 42.33560 | 4.90490 | 36980 ft | 452 kts | 11° |
| 2026-04-20 23:01 | 42.39635 | 4.92915 | 36972 ft | 452 kts | 11° |
| 2026-04-20 23:01 | 42.45669 | 4.95328 | 36974 ft | 452 kts | 11° |
| 2026-04-20 23:02 | 42.50685 | 4.97339 | 37006 ft | 452 kts | 11° |
| 2026-04-20 23:02 | 42.57606 | 5.00117 | 36983 ft | 453 kts | 11° |
| 2026-04-20 23:03 | 42.63645 | 5.02547 | 36962 ft | 453 kts | 11° |
| 2026-04-20 23:03 | 42.68705 | 5.04588 | 36970 ft | 453 kts | 11° |
| 2026-04-20 23:04 | 42.74740 | 5.07025 | 36965 ft | 452 kts | 11° |
| 2026-04-20 23:04 | 42.80776 | 5.09468 | 36967 ft | 452 kts | 11° |
| 2026-04-20 23:05 | 42.86806 | 5.11914 | 36960 ft | 452 kts | 11° |
| 2026-04-20 23:05 | 42.92836 | 5.14365 | 36967 ft | 452 kts | 11° |
| 2026-04-20 23:06 | 42.98872 | 5.16822 | 36965 ft | 453 kts | 11° |
| 2026-04-20 23:06 | 43.04900 | 5.19276 | 36963 ft | 453 kts | 11° |
| 2026-04-20 23:07 | 43.10903 | 5.21701 | 36958 ft | 453 kts | 11° |
| 2026-04-20 23:07 | 43.16954 | 5.24150 | 36955 ft | 454 kts | 11° |
| 2026-04-20 23:08 | 43.23011 | 5.26610 | 36947 ft | 454 kts | 11° |
| 2026-04-20 23:08 | 43.29070 | 5.29077 | 36944 ft | 454 kts | 11° |
| 2026-04-20 23:09 | 43.35158 | 5.31355 | 36929 ft | 449 kts | 2° |
| 2026-04-20 23:09 | 43.41269 | 5.31042 | 36942 ft | 435 kts | 342° |
| 2026-04-20 23:10 | 43.46990 | 5.28531 | 36941 ft | 431 kts | 336° |
| 2026-04-20 23:10 | 43.52672 | 5.25848 | 36951 ft | 432 kts | 337° |
| 2026-04-20 23:11 | 43.58367 | 5.23199 | 36949 ft | 432 kts | 337° |
| 2026-04-20 23:11 | 43.64072 | 5.20577 | 36937 ft | 432 kts | 337° |
| 2026-04-20 23:12 | 43.69778 | 5.17961 | 36944 ft | 432 kts | 337° |
| 2026-04-20 23:12 | 43.75483 | 5.15341 | 36947 ft | 432 kts | 337° |
| 2026-04-20 23:13 | 43.81182 | 5.12717 | 36965 ft | 431 kts | 337° |
| 2026-04-20 23:13 | 43.86872 | 5.10092 | 36962 ft | 431 kts | 337° |
| 2026-04-20 23:14 | 43.92558 | 5.07463 | 36982 ft | 430 kts | 337° |
| 2026-04-20 23:14 | 43.98239 | 5.04832 | 36970 ft | 430 kts | 337° |
| 2026-04-20 23:15 | 44.03908 | 5.02200 | 36983 ft | 429 kts | 337° |
| 2026-04-20 23:15 | 44.09531 | 4.99585 | 36992 ft | 429 kts | 337° |
| 2026-04-20 23:16 | 44.15223 | 4.96931 | 36990 ft | 429 kts | 337° |
| 2026-04-20 23:16 | 44.20830 | 4.94313 | 36993 ft | 427 kts | 337° |
| 2026-04-20 23:17 | 44.26466 | 4.91675 | 36989 ft | 427 kts | 337° |
| 2026-04-20 23:17 | 44.32092 | 4.89037 | 36985 ft | 426 kts | 337° |
| 2026-04-20 23:18 | 44.37707 | 4.86398 | 36984 ft | 426 kts | 336° |
| 2026-04-20 23:18 | 44.43318 | 4.83756 | 36978 ft | 425 kts | 336° |
| 2026-04-20 23:19 | 44.48921 | 4.81112 | 36986 ft | 425 kts | 336° |
| 2026-04-20 23:19 | 44.54525 | 4.78469 | 37008 ft | 425 kts | 338° |
| 2026-04-20 23:20 | 44.60357 | 4.76759 | 37013 ft | 431 kts | 346° |
| 2026-04-20 23:20 | 44.66300 | 4.75541 | 36997 ft | 431 kts | 346° |
| 2026-04-20 23:21 | 44.72229 | 4.74294 | 37013 ft | 431 kts | 346° |
| 2026-04-20 23:21 | 44.78151 | 4.72996 | 37029 ft | 430 kts | 346° |
| 2026-04-20 23:22 | 44.84060 | 4.71682 | 37018 ft | 430 kts | 346° |
| 2026-04-20 23:22 | 44.89972 | 4.70362 | 37043 ft | 431 kts | 346° |
| 2026-04-20 23:23 | 44.95905 | 4.69036 | 37031 ft | 432 kts | 346° |
| 2026-04-20 23:23 | 45.01843 | 4.67709 | 37036 ft | 433 kts | 346° |
| 2026-04-20 23:24 | 45.07800 | 4.66373 | 37040 ft | 434 kts | 346° |
| 2026-04-20 23:24 | 45.13770 | 4.65033 | 37053 ft | 435 kts | 346° |
| 2026-04-20 23:25 | 45.19885 | 4.64980 | 37049 ft | 448 kts | 3° |
| 2026-04-20 23:25 | 45.25899 | 4.67386 | 37057 ft | 457 kts | 14° |
| 2026-04-20 23:26 | 45.31849 | 4.70602 | 37060 ft | 458 kts | 15° |
| 2026-04-20 23:26 | 45.37812 | 4.73807 | 37047 ft | 458 kts | 14° |
| 2026-04-20 23:27 | 45.43783 | 4.76962 | 37057 ft | 458 kts | 14° |
| 2026-04-20 23:27 | 45.49761 | 4.80102 | 37062 ft | 458 kts | 14° |
| 2026-04-20 23:28 | 45.55743 | 4.83252 | 37054 ft | 458 kts | 14° |
| 2026-04-20 23:28 | 45.61717 | 4.86408 | 37050 ft | 458 kts | 14° |
| 2026-04-20 23:29 | 45.67696 | 4.89572 | 37067 ft | 458 kts | 14° |
| 2026-04-20 23:29 | 45.73673 | 4.92733 | 37052 ft | 458 kts | 14° |
| 2026-04-20 23:30 | 45.79646 | 4.95896 | 37044 ft | 457 kts | 14° |
| 2026-04-20 23:30 | 45.85607 | 4.99062 | 37051 ft | 457 kts | 14° |
| 2026-04-20 23:31 | 45.91567 | 5.02235 | 37054 ft | 457 kts | 14° |
| 2026-04-20 23:31 | 45.97517 | 5.05410 | 37048 ft | 456 kts | 14° |
| 2026-04-20 23:32 | 46.03472 | 5.08448 | 37042 ft | 451 kts | 8° |
| 2026-04-20 23:32 | 46.09544 | 5.09388 | 37055 ft | 438 kts | 354° |
| 2026-04-20 23:33 | 46.15670 | 5.09288 | 37049 ft | 438 kts | 354° |
| 2026-04-20 23:33 | 46.21765 | 5.09279 | 37058 ft | 438 kts | 354° |
| 2026-04-20 23:34 | 46.27811 | 5.09316 | 37070 ft | 438 kts | 354° |
| 2026-04-20 23:34 | 46.33909 | 5.09347 | 37062 ft | 438 kts | 354° |
| 2026-04-20 23:35 | 46.43069 | 5.09391 | 37059 ft | 439 kts | 354° |
| 2026-04-20 23:36 | 46.49176 | 5.09416 | 37077 ft | 439 kts | 354° |
| 2026-04-20 23:36 | 46.55281 | 5.09432 | 37062 ft | 439 kts | 354° |
| 2026-04-20 23:37 | 46.61389 | 5.09450 | 37061 ft | 438 kts | 354° |
| 2026-04-20 23:37 | 46.67487 | 5.09468 | 37063 ft | 438 kts | 354° |
| 2026-04-20 23:38 | 46.73584 | 5.09486 | 37067 ft | 438 kts | 354° |
| 2026-04-20 23:38 | 46.79678 | 5.09505 | 37066 ft | 438 kts | 354° |
| 2026-04-20 23:39 | 46.85770 | 5.09534 | 37090 ft | 438 kts | 354° |
| 2026-04-20 23:39 | 46.91863 | 5.09566 | 37082 ft | 438 kts | 354° |
| 2026-04-20 23:40 | 46.97950 | 5.09597 | 37071 ft | 437 kts | 354° |
| 2026-04-20 23:40 | 47.04023 | 5.09627 | 37091 ft | 437 kts | 354° |
| 2026-04-20 23:41 | 47.10100 | 5.09657 | 37084 ft | 437 kts | 354° |
| 2026-04-20 23:41 | 47.16182 | 5.09687 | 37104 ft | 437 kts | 354° |
| 2026-04-20 23:42 | 47.22256 | 5.09717 | 37105 ft | 436 kts | 354° |
| 2026-04-20 23:42 | 47.28329 | 5.09747 | 37120 ft | 436 kts | 355° |
| 2026-04-20 23:43 | 47.34401 | 5.09777 | 37109 ft | 437 kts | 355° |
| 2026-04-20 23:43 | 47.40372 | 5.09814 | 37084 ft | 415 kts | 355° |
| 2026-04-20 23:43 | 47.43213 | 5.09834 | 37079 ft | 401 kts | 354° |
| 2026-04-20 23:44 | 47.45952 | 5.09850 | 37087 ft | 387 kts | 354° |
| 2026-04-20 23:44 | 47.48570 | 5.09861 | 37099 ft | 374 kts | 354° |
| 2026-04-20 23:44 | 47.51129 | 5.09872 | 37084 ft | 363 kts | 354° |
| 2026-04-20 23:45 | 47.56196 | 5.09882 | 37126 ft | 368 kts | 352° |
| 2026-04-20 23:45 | 47.58716 | 5.09203 | 37095 ft | 362 kts | 333° |
| 2026-04-20 23:45 | 47.60900 | 5.07495 | 37106 ft | 361 kts | 320° |
| 2026-04-20 23:46 | 47.64769 | 5.02667 | 37121 ft | 367 kts | 316° |
| 2026-04-20 23:46 | 47.68621 | 4.97695 | 37111 ft | 364 kts | 317° |
| 2026-04-20 23:47 | 47.72425 | 4.92883 | 37124 ft | 356 kts | 317° |
| 2026-04-20 23:47 | 47.76198 | 4.88116 | 37133 ft | 356 kts | 317° |
| 2026-04-20 23:48 | 47.79969 | 4.83336 | 37137 ft | 356 kts | 317° |
| 2026-04-20 23:48 | 47.83740 | 4.78545 | 37136 ft | 357 kts | 316° |
| 2026-04-20 23:49 | 47.87516 | 4.73739 | 37137 ft | 357 kts | 316° |
| 2026-04-20 23:49 | 47.91294 | 4.68921 | 37141 ft | 358 kts | 316° |
| 2026-04-20 23:50 | 47.95083 | 4.64079 | 37137 ft | 359 kts | 316° |
| 2026-04-20 23:50 | 47.98232 | 4.60047 | 37146 ft | 359 kts | 316° |
| 2026-04-20 23:51 | 48.02018 | 4.55191 | 37143 ft | 359 kts | 316° |
| 2026-04-20 23:51 | 48.05811 | 4.50316 | 37153 ft | 360 kts | 316° |
| 2026-04-20 23:52 | 48.09601 | 4.45435 | 37156 ft | 360 kts | 316° |
| 2026-04-20 23:52 | 48.13390 | 4.40545 | 37153 ft | 360 kts | 316° |
| 2026-04-20 23:53 | 48.17178 | 4.35647 | 37161 ft | 360 kts | 316° |
| 2026-04-20 23:53 | 48.20967 | 4.30738 | 37155 ft | 360 kts | 316° |
| 2026-04-20 23:54 | 48.24747 | 4.25830 | 37145 ft | 359 kts | 316° |
| 2026-04-20 23:54 | 48.28220 | 4.20585 | 37168 ft | 355 kts | 307° |
| 2026-04-20 23:55 | 48.31297 | 4.14721 | 37161 ft | 355 kts | 307° |
| 2026-04-20 23:55 | 48.34417 | 4.08965 | 37171 ft | 355 kts | 308° |
| 2026-04-20 23:56 | 48.37534 | 4.03275 | 37188 ft | 355 kts | 307° |
| 2026-04-20 23:56 | 48.40622 | 3.97625 | 37177 ft | 356 kts | 307° |
| 2026-04-20 23:57 | 48.43763 | 3.91863 | 37176 ft | 356 kts | 307° |
| 2026-04-20 23:57 | 48.46902 | 3.86089 | 37171 ft | 357 kts | 307° |
| 2026-04-20 23:58 | 48.50046 | 3.80296 | 37176 ft | 357 kts | 307° |
| 2026-04-20 23:58 | 48.53189 | 3.74492 | 37180 ft | 357 kts | 307° |
| 2026-04-20 23:59 | 48.56064 | 3.68401 | 37188 ft | 356 kts | 301° |
| 2026-04-20 23:59 | 48.58697 | 3.62053 | 37174 ft | 357 kts | 301° |
| 2026-04-21 00:00 | 48.61386 | 3.55751 | 37190 ft | 358 kts | 302° |
| 2026-04-21 00:00 | 48.64091 | 3.49441 | 37188 ft | 358 kts | 301° |
| 2026-04-21 00:01 | 48.66795 | 3.43115 | 37185 ft | 358 kts | 302° |
| 2026-04-21 00:01 | 48.69493 | 3.36787 | 37181 ft | 358 kts | 301° |
| 2026-04-21 00:02 | 48.72188 | 3.30449 | 37185 ft | 358 kts | 301° |
| 2026-04-21 00:02 | 48.74877 | 3.24112 | 37184 ft | 358 kts | 301° |
| 2026-04-21 00:03 | 48.77562 | 3.17767 | 37185 ft | 357 kts | 301° |
| 2026-04-21 00:03 | 48.80240 | 3.11424 | 37184 ft | 357 kts | 301° |
| 2026-04-21 00:04 | 48.82896 | 3.05121 | 37159 ft | 357 kts | 301° |
| 2026-04-21 00:04 | 48.85679 | 2.99078 | 37183 ft | 357 kts | 310° |
| 2026-04-21 00:05 | 48.89097 | 2.93602 | 37181 ft | 357 kts | 311° |
| 2026-04-21 00:05 | 48.92483 | 2.88091 | 37183 ft | 356 kts | 310° |
| 2026-04-21 00:06 | 48.95859 | 2.82576 | 37183 ft | 357 kts | 311° |
| 2026-04-21 00:06 | 48.99316 | 2.77167 | 37185 ft | 356 kts | 312° |
| 2026-04-21 00:07 | 49.02762 | 2.71751 | 37183 ft | 356 kts | 311° |
| 2026-04-21 00:07 | 49.06200 | 2.66313 | 37201 ft | 357 kts | 311° |
| 2026-04-21 00:08 | 49.09639 | 2.60855 | 37182 ft | 357 kts | 311° |
| 2026-04-21 00:08 | 49.11203 | 2.57940 | 37169 ft | 354 kts | 298° |
| 2026-04-21 00:08 | 49.12292 | 2.54575 | 37206 ft | 353 kts | 294° |
| 2026-04-21 00:09 | 49.14345 | 2.47748 | 37191 ft | 354 kts | 295° |
| 2026-04-21 00:09 | 49.16453 | 2.40933 | 37188 ft | 355 kts | 295° |
| 2026-04-21 00:09 | 49.17315 | 2.37399 | 37177 ft | 356 kts | 282° |
| 2026-04-21 00:10 | 49.17515 | 2.33635 | 37203 ft | 358 kts | 269° |
| 2026-04-21 00:10 | 49.16992 | 2.26037 | 37208 ft | 360 kts | 266° |
| 2026-04-21 00:11 | 49.15657 | 2.18683 | 37225 ft | 370 kts | 241° |
| 2026-04-21 00:11 | 49.13955 | 2.15676 | 37199 ft | 381 kts | 224° |
| 2026-04-21 00:11 | 49.11685 | 2.13512 | 37217 ft | 392 kts | 208° |
| 2026-04-21 00:11 | 49.09019 | 2.12428 | 37198 ft | 405 kts | 188° |
| 2026-04-21 00:12 | 49.06178 | 2.12581 | 37232 ft | 411 kts | 180° |
| 2026-04-21 00:12 | 49.00455 | 2.13481 | 37209 ft | 414 kts | 180° |
| 2026-04-21 00:13 | 48.94899 | 2.15770 | 37217 ft | 429 kts | 145° |
| 2026-04-21 00:13 | 48.92837 | 2.19060 | 37176 ft | 435 kts | 120° |
| 2026-04-21 00:13 | 48.91759 | 2.23317 | 37217 ft | 432 kts | 95° |
| 2026-04-21 00:13 | 48.91835 | 2.27820 | 37212 ft | 424 kts | 70° |
| 2026-04-21 00:14 | 48.93025 | 2.31810 | 37218 ft | 410 kts | 47° |
| 2026-04-21 00:14 | 48.96738 | 2.38340 | 37206 ft | 415 kts | 50° |
| 2026-04-21 00:14 | 48.98116 | 2.42259 | 37209 ft | 426 kts | 66° |
| 2026-04-21 00:15 | 48.98843 | 2.46664 | 37226 ft | 434 kts | 79° |
| 2026-04-21 00:15 | 48.99330 | 2.55849 | 37194 ft | 441 kts | 84° |
| 2026-04-21 00:16 | 48.99682 | 2.65216 | 37185 ft | 438 kts | 84° |
| 2026-04-21 00:16 | 49.00014 | 2.74355 | 37174 ft | 433 kts | 84° |
| 2026-04-21 00:17 | 49.00345 | 2.83565 | 37177 ft | 432 kts | 84° |
| 2026-04-21 00:17 | 49.00673 | 2.92697 | 37180 ft | 431 kts | 84° |
| 2026-04-21 00:18 | 49.00997 | 3.01755 | 37187 ft | 431 kts | 84° |
| 2026-04-21 00:18 | 49.01325 | 3.10930 | 37199 ft | 432 kts | 84° |
| 2026-04-21 00:19 | 49.01660 | 3.20072 | 37193 ft | 433 kts | 84° |
| 2026-04-21 00:19 | 49.01998 | 3.29164 | 37192 ft | 433 kts | 84° |
| 2026-04-21 00:20 | 49.02341 | 3.38343 | 37188 ft | 434 kts | 84° |
| 2026-04-21 00:20 | 49.02686 | 3.47548 | 37199 ft | 436 kts | 84° |
| 2026-04-21 00:21 | 49.03038 | 3.56778 | 37207 ft | 437 kts | 84° |
| 2026-04-21 00:21 | 49.03399 | 3.66036 | 37198 ft | 438 kts | 84° |
| 2026-04-21 00:22 | 49.03763 | 3.75318 | 37193 ft | 439 kts | 84° |
| 2026-04-21 00:22 | 49.04127 | 3.84604 | 37191 ft | 439 kts | 84° |
| 2026-04-21 00:23 | 49.04492 | 3.93894 | 37198 ft | 439 kts | 84° |
| 2026-04-21 00:23 | 49.04850 | 4.03013 | 37189 ft | 439 kts | 84° |
| 2026-04-21 00:24 | 49.05212 | 4.12299 | 37177 ft | 438 kts | 84° |
| 2026-04-21 00:24 | 49.05574 | 4.21563 | 37188 ft | 437 kts | 84° |
| 2026-04-21 00:25 | 49.05936 | 4.30807 | 37175 ft | 437 kts | 84° |
| 2026-04-21 00:25 | 49.06297 | 4.40046 | 37198 ft | 436 kts | 84° |
| 2026-04-21 00:26 | 49.06657 | 4.49277 | 37183 ft | 436 kts | 84° |
| 2026-04-21 00:26 | 49.07017 | 4.58507 | 37184 ft | 436 kts | 84° |
| 2026-04-21 00:27 | 49.07377 | 4.67740 | 37177 ft | 436 kts | 84° |
| 2026-04-21 00:27 | 49.07738 | 4.76986 | 37174 ft | 437 kts | 84° |
| 2026-04-21 00:28 | 49.08098 | 4.86240 | 37191 ft | 437 kts | 84° |
| 2026-04-21 00:28 | 49.08458 | 4.95512 | 37179 ft | 439 kts | 84° |
| 2026-04-21 00:29 | 49.08813 | 5.04641 | 37169 ft | 440 kts | 84° |
| 2026-04-21 00:29 | 49.09173 | 5.13893 | 37175 ft | 440 kts | 84° |
| 2026-04-21 00:30 | 49.09537 | 5.23238 | 37172 ft | 442 kts | 84° |
| 2026-04-21 00:30 | 49.09902 | 5.32596 | 37173 ft | 442 kts | 84° |
| 2026-04-21 00:31 | 49.10265 | 5.41971 | 37173 ft | 443 kts | 84° |
| 2026-04-21 00:31 | 49.10446 | 5.46670 | 37174 ft | 444 kts | 84° |